KAOO/AOO METAR and TAF weather

Enter ICAO airport designator
Station Type Date Time Source
KAOO METAR 2018/04/26 14:53 UTC NOAA

KAOO 261453Z AUTO 33013KT A2989 RMK AO2 SLPNO 6//// 53001 PWINO FZRANO PNO $


Station Type Date Time Source
KAOO Decoded METAR 2018/04/26 14:53 UTC NOAA

ALTOONA-BLAIR COUNTY AIRPORT, PA, United States (KAOO) 40-18N 78-19W 455M
Apr 26, 2018 - 10:53 AM EDT / 2018.04.26 1453 UTC
Wind: from the NNW (330 degrees) at 15 MPH (13 KT):0
Pressure (altimeter): 29.89 in. Hg (1012 hPa)
Pressure tendency: 0.00 inches (0.1 hPa) higher than three hours ago
ob: KAOO 261453Z AUTO 33013KT A2989 RMK AO2 SLPNO 6//// 53001 PWINO FZRANO PNO
cycle: 15

Station Type Date Time Source
KAOO TAF 2018/04/26 15:18 UTC NOAA

TAF
AMD KAOO 261517Z 2615/2712 33013KT P6SM FEW250
FM262300 VRB03KT P6SM BKN200
FM271000 16003KT P6SM -RA OVC020


Example: see airport list